createdAt,value
2018-07-11T00:00:56.081Z,2.37
2018-07-11T00:03:00.623Z,2.00
2018-07-11T00:05:05.189Z,2.30
2018-07-11T00:07:09.651Z,1.93
2018-07-11T00:09:14.151Z,2.00
2018-07-11T00:11:18.649Z,1.83
2018-07-11T00:13:23.194Z,2.40
2018-07-11T00:15:27.655Z,2.90
2018-07-11T00:17:32.200Z,3.90
2018-07-11T00:19:36.962Z,4.57
2018-07-11T00:21:41.533Z,4.67
2018-07-11T00:23:46.078Z,4.80
2018-07-11T00:25:50.762Z,3.55
2018-07-11T00:27:56.375Z,3.13
2018-07-11T00:30:00.944Z,3.50
2018-07-11T00:32:05.445Z,3.67
2018-07-11T00:34:09.970Z,3.50
2018-07-11T00:36:14.725Z,3.30
2018-07-11T00:38:19.470Z,3.33
2018-07-11T00:40:23.983Z,3.57
2018-07-11T00:42:28.554Z,3.63
2018-07-11T00:44:33.250Z,4.08
2018-07-11T00:46:37.807Z,3.90
2018-07-11T00:48:42.343Z,3.55
2018-07-11T00:50:55.438Z,3.60
2018-07-11T00:53:00.143Z,3.90
2018-07-11T00:55:04.699Z,3.37
2018-07-11T00:57:09.283Z,3.98
2018-07-11T00:59:23.769Z,4.17
2018-07-11T01:01:31.042Z,4.30
2018-07-11T01:03:55.069Z,3.80
2018-07-11T01:06:00.557Z,4.53
2018-07-11T01:08:07.703Z,4.37
2018-07-11T01:10:15.668Z,4.87
2018-07-11T01:12:22.850Z,4.50
2018-07-11T01:14:28.867Z,4.70
2018-07-11T01:16:37.213Z,4.40
2018-07-11T01:19:08.512Z,4.73
2018-07-11T01:21:15.428Z,4.37
2018-07-11T01:23:21.005Z,4.63
2018-07-11T01:25:27.443Z,5.03
2018-07-11T01:27:35.189Z,4.30
2018-07-11T01:29:40.993Z,5.07
2018-07-11T01:31:47.332Z,5.33
2018-07-11T01:33:55.138Z,4.58
2018-07-11T01:36:02.590Z,5.13
2018-07-11T01:38:10.853Z,5.45
2018-07-11T01:40:16.707Z,5.40
2018-07-11T01:42:22.346Z,4.90
2018-07-11T01:44:29.151Z,5.15
2018-07-11T01:46:52.953Z,6.62
2018-07-11T01:49:00.959Z,6.30
2018-07-11T01:51:06.526Z,6.33
2018-07-11T01:53:14.273Z,7.53
2018-07-11T01:55:22.330Z,9.07
2018-07-11T01:57:29.335Z,9.63
2018-07-11T01:59:38.023Z,9.70
2018-07-11T02:01:45.439Z,7.83
2018-07-11T02:03:52.342Z,8.50
2018-07-11T02:06:01.466Z,9.95
2018-07-11T02:08:07.230Z,9.03
2018-07-11T02:10:14.101Z,10.03
2018-07-11T02:12:20.065Z,10.83
2018-07-11T02:14:26.445Z,11.03
2018-07-11T02:16:34.254Z,11.57
2018-07-11T02:18:42.396Z,12.10
2018-07-11T02:20:47.518Z,12.43
2018-07-11T02:22:54.198Z,12.68
2018-07-11T02:24:58.734Z,12.90
2018-07-11T02:27:03.046Z,13.97
2018-07-11T02:29:07.663Z,13.97
2018-07-11T02:31:12.211Z,13.53
2018-07-11T02:33:17.617Z,14.77
2018-07-11T02:35:22.157Z,15.17
2018-07-11T02:37:26.630Z,15.00
2018-07-11T02:39:31.551Z,15.40
2018-07-11T02:41:36.034Z,15.27
2018-07-11T02:43:40.630Z,14.87
2018-07-11T02:45:45.148Z,15.23
2018-07-11T02:47:49.416Z,15.53
2018-07-11T02:49:53.945Z,16.23
2018-07-11T02:51:58.463Z,16.07
2018-07-11T02:54:02.705Z,16.70
2018-07-11T02:56:06.928Z,15.87
2018-07-11T02:58:11.440Z,16.47
2018-07-11T03:00:16.024Z,15.67
2018-07-11T03:02:20.629Z,16.63
2018-07-11T03:04:25.813Z,16.15
2018-07-11T03:06:30.396Z,17.03
2018-07-11T03:08:37.922Z,17.20
2018-07-11T03:10:42.394Z,17.67
2018-07-11T03:12:46.889Z,16.07
2018-07-11T03:14:52.518Z,17.30
2018-07-11T03:16:57.762Z,16.47
2018-07-11T03:19:02.215Z,16.70
2018-07-11T03:21:06.930Z,15.60
2018-07-11T03:23:11.459Z,16.40
2018-07-11T03:25:16.091Z,16.43
2018-07-11T03:27:20.599Z,16.80
2018-07-11T03:29:25.137Z,17.47
2018-07-11T03:31:29.577Z,16.82
2018-07-11T03:33:34.080Z,16.57
2018-07-11T03:35:38.620Z,15.73
2018-07-11T03:37:43.134Z,15.60
2018-07-11T03:39:47.678Z,16.57
2018-07-11T03:41:52.202Z,15.15
2018-07-11T03:43:56.762Z,14.73
2018-07-11T03:46:01.241Z,15.80
2018-07-11T03:48:05.845Z,14.78
2018-07-11T03:50:10.808Z,16.10
2018-07-11T03:52:15.306Z,15.10
2018-07-11T03:54:19.814Z,15.80
2018-07-11T03:56:24.215Z,16.20
2018-07-11T03:58:28.662Z,16.15
2018-07-11T04:00:36.206Z,16.60
2018-07-11T04:02:42.045Z,15.63
2018-07-11T04:04:49.184Z,15.43
2018-07-11T04:06:54.374Z,16.37
2018-07-11T04:09:00.876Z,16.00
2018-07-11T04:11:07.777Z,16.23
2018-07-11T04:13:20.345Z,15.55
2018-07-11T04:15:27.451Z,16.42
2018-07-11T04:17:35.046Z,16.45
2018-07-11T04:19:44.968Z,16.97
2018-07-11T04:21:54.310Z,16.75
2018-07-11T04:24:01.590Z,16.60
2018-07-11T04:26:09.593Z,16.42
2018-07-11T04:28:14.275Z,16.52
2018-07-11T04:30:18.897Z,16.93
2018-07-11T04:32:23.399Z,17.12
2018-07-11T04:34:27.935Z,17.20
2018-07-11T04:36:32.870Z,16.20
2018-07-11T04:38:38.482Z,17.20
2018-07-11T04:40:43.067Z,15.63
2018-07-11T04:42:47.615Z,16.75
2018-07-11T04:44:52.161Z,17.53
2018-07-11T04:46:56.770Z,16.20
2018-07-11T04:49:01.255Z,15.57
2018-07-11T04:51:05.996Z,16.12
2018-07-11T04:53:11.586Z,17.07
2018-07-11T04:55:16.143Z,16.42
2018-07-11T04:57:21.641Z,16.47
2018-07-11T04:59:26.226Z,17.15
2018-07-11T05:01:30.975Z,15.75
2018-07-11T05:03:35.389Z,16.50
2018-07-11T05:05:39.887Z,15.17
2018-07-11T05:07:44.330Z,16.03
2018-07-11T05:09:48.797Z,15.70
2018-07-11T05:11:53.215Z,16.73
2018-07-11T05:13:58.878Z,16.27
2018-07-11T05:16:03.325Z,16.37
2018-07-11T05:18:07.821Z,16.77
2018-07-11T05:20:12.323Z,16.00
2018-07-11T05:22:16.781Z,14.67
2018-07-11T05:24:21.270Z,15.40
2018-07-11T05:26:25.779Z,15.47
2018-07-11T05:28:30.238Z,14.90
2018-07-11T05:30:34.761Z,15.80
2018-07-11T05:32:39.212Z,14.60
2018-07-11T05:34:43.842Z,15.10
2018-07-11T05:36:48.334Z,14.87
2018-07-11T05:38:52.605Z,16.27
2018-07-11T05:40:57.084Z,16.50
2018-07-11T05:43:01.511Z,16.17
2018-07-11T05:45:06.075Z,15.73
2018-07-11T05:47:10.539Z,16.40
2018-07-11T05:49:14.981Z,16.53
2018-07-11T05:51:20.350Z,16.00
2018-07-11T05:53:24.904Z,16.97
2018-07-11T05:55:29.407Z,15.85
2018-07-11T05:57:33.595Z,17.02
2018-07-11T05:59:38.011Z,16.20
2018-07-11T06:01:42.499Z,16.37
2018-07-11T06:03:46.946Z,16.93
2018-07-11T06:05:51.506Z,16.70
2018-07-11T06:07:56.001Z,16.40
2018-07-11T06:10:00.286Z,17.30
2018-07-11T06:12:04.850Z,17.53
2018-07-11T06:14:09.370Z,17.40
2018-07-11T06:16:13.949Z,16.75
2018-07-11T06:18:18.614Z,17.17
2018-07-11T06:20:23.051Z,17.53
2018-07-11T06:22:27.185Z,17.30
2018-07-11T06:24:31.317Z,17.23
2018-07-11T06:26:36.105Z,16.43
2018-07-11T06:28:40.624Z,17.43
2018-07-11T06:30:45.117Z,16.70
2018-07-11T06:32:49.524Z,15.03
2018-07-11T06:34:54.895Z,16.00
2018-07-11T06:37:01.682Z,16.70
2018-07-11T06:39:06.953Z,16.15
2018-07-11T06:41:11.494Z,16.07
2018-07-11T06:43:15.962Z,17.20
2018-07-11T06:45:20.690Z,17.00
2018-07-11T06:47:28.942Z,15.65
2018-07-11T06:49:33.727Z,16.43
2018-07-11T06:51:38.287Z,15.67
2018-07-11T06:53:42.742Z,14.55
2018-07-11T06:55:48.278Z,13.33
2018-07-11T06:57:52.838Z,13.80
2018-07-11T06:59:57.242Z,14.00
2018-07-11T07:02:01.710Z,14.33
2018-07-11T07:04:06.174Z,15.43
2018-07-11T07:06:10.690Z,14.27
2018-07-11T07:08:15.339Z,14.23
2018-07-11T07:10:20.590Z,15.20
2018-07-11T07:12:24.722Z,25.33
2018-07-11T07:14:29.155Z,14.63
2018-07-11T07:16:33.763Z,14.00
2018-07-11T07:18:38.228Z,14.40
2018-07-11T07:20:42.354Z,13.00
2018-07-11T07:22:46.843Z,14.20
2018-07-11T07:24:51.474Z,14.30
2018-07-11T07:26:55.937Z,13.07
2018-07-11T07:29:00.793Z,13.03
2018-07-11T07:31:05.181Z,13.90
2018-07-11T07:33:09.694Z,13.45
2018-07-11T07:35:16.993Z,13.50
2018-07-11T07:37:21.570Z,13.50
2018-07-11T07:39:26.046Z,13.43
2018-07-11T07:41:30.612Z,13.57
2018-07-11T07:43:35.925Z,12.97
2018-07-11T07:45:42.862Z,10.88
2018-07-11T07:47:48.096Z,11.50
2018-07-11T07:49:52.714Z,11.35
2018-07-11T07:51:57.547Z,10.43
2018-07-11T07:54:02.177Z,10.53
2018-07-11T07:56:06.633Z,9.27
2018-07-11T07:58:11.245Z,8.77
2018-07-11T08:00:15.464Z,9.57
2018-07-11T08:02:20.657Z,9.33
2018-07-11T08:04:25.172Z,9.07
2018-07-11T08:06:29.409Z,8.65
2018-07-11T08:08:33.971Z,8.87
2018-07-11T08:10:40.837Z,7.83
2018-07-11T08:12:45.349Z,8.23
2018-07-11T08:14:49.806Z,8.50
2018-07-11T08:16:54.311Z,8.77
2018-07-11T08:18:58.762Z,8.28
2018-07-11T08:21:03.222Z,8.43
2018-07-11T08:23:26.603Z,8.78
2018-07-11T08:25:48.446Z,8.40
2018-07-11T08:28:06.018Z,7.58
2018-07-11T08:30:29.418Z,8.40
2018-07-11T08:34:58.031Z,7.70
2018-07-11T08:38:25.094Z,7.90
2018-07-11T08:40:44.879Z,7.58
2018-07-11T08:45:14.634Z,8.35
2018-07-11T08:47:54.001Z,6.73
2018-07-11T08:50:18.134Z,7.08
2018-07-11T08:53:45.361Z,7.23
2018-07-11T08:58:11.421Z,6.53
2018-07-11T09:02:44.514Z,7.30
2018-07-11T09:05:24.766Z,7.12
2018-07-11T09:10:07.839Z,7.33
2018-07-11T09:16:10.702Z,6.17
2018-07-11T09:19:35.949Z,5.08
2018-07-11T09:22:33.238Z,4.03
2018-07-11T09:24:40.921Z,3.72
2018-07-11T09:26:45.491Z,3.83
2018-07-11T09:28:50.383Z,3.50
2018-07-11T09:30:54.913Z,3.65
2018-07-11T09:32:59.453Z,3.10
2018-07-11T09:35:04.018Z,3.03
2018-07-11T09:37:08.604Z,2.65
2018-07-11T09:39:13.221Z,2.90
2018-07-11T09:41:20.700Z,2.83
2018-07-11T09:43:25.434Z,2.43
2018-07-11T09:45:29.939Z,2.60
2018-07-11T09:47:34.574Z,2.22
2018-07-11T09:49:39.723Z,2.50
2018-07-11T09:51:44.232Z,2.20
2018-07-11T09:53:48.781Z,2.57
2018-07-11T09:55:53.331Z,3.00
2018-07-11T09:57:58.144Z,2.50
2018-07-11T10:00:02.744Z,2.23
2018-07-11T10:02:07.290Z,2.50
2018-07-11T10:04:14.601Z,2.63
2018-07-11T10:06:19.254Z,2.47
2018-07-11T10:08:24.614Z,2.33
2018-07-11T10:10:29.101Z,2.00
2018-07-11T10:12:33.815Z,2.47
2018-07-11T10:14:38.258Z,1.92
2018-07-11T10:16:42.747Z,2.07
2018-07-11T10:19:03.823Z,2.50
2018-07-11T10:21:08.274Z,1.83
2018-07-11T10:23:12.817Z,2.65
2018-07-11T10:25:17.303Z,2.50
2018-07-11T10:27:21.833Z,2.43
2018-07-11T10:29:26.465Z,2.73
2018-07-11T10:31:31.115Z,2.22
2018-07-11T10:33:35.621Z,2.60
2018-07-11T10:35:40.167Z,3.33
2018-07-11T10:37:44.927Z,3.10
2018-07-11T10:39:49.482Z,2.87
2018-07-11T10:41:53.988Z,2.90
2018-07-11T10:43:58.509Z,2.67
2018-07-11T10:46:03.027Z,2.40
2018-07-11T10:48:07.541Z,2.23
2018-07-11T10:50:12.142Z,2.37
2018-07-11T10:52:16.628Z,2.58
2018-07-11T10:54:21.254Z,2.00
2018-07-11T10:56:26.893Z,2.77
2018-07-11T10:58:31.397Z,2.10
2018-07-11T11:00:37.196Z,4.25
2018-07-11T11:02:40.119Z,3.70
2018-07-11T11:04:44.718Z,3.67
2018-07-11T11:06:49.047Z,5.53
2018-07-11T11:08:53.628Z,6.20
2018-07-11T11:10:58.176Z,5.58
2018-07-11T11:13:02.608Z,5.53
2018-07-11T11:15:07.248Z,5.67
2018-07-11T11:17:14.742Z,6.00
2018-07-11T11:19:23.295Z,6.03
2018-07-11T11:21:27.953Z,5.40
2018-07-11T11:23:32.398Z,5.17
2018-07-11T11:25:37.037Z,5.23
2018-07-11T11:27:47.237Z,4.87
2018-07-11T11:29:53.692Z,4.90
2018-07-11T11:31:58.727Z,5.13
2018-07-11T11:34:03.184Z,4.00
2018-07-11T11:36:07.759Z,4.27
2018-07-11T11:38:12.304Z,4.30
2018-07-11T11:40:16.865Z,3.73
2018-07-11T11:42:22.304Z,4.00
2018-07-11T11:44:26.671Z,3.53
2018-07-11T11:46:31.179Z,3.47
2018-07-11T11:48:35.811Z,3.87
2018-07-11T11:50:40.519Z,3.17
2018-07-11T11:52:46.248Z,3.85
2018-07-11T11:54:50.494Z,3.53
2018-07-11T11:56:54.978Z,3.10
2018-07-11T11:58:59.398Z,2.77
2018-07-11T12:01:03.904Z,3.30
2018-07-11T12:03:09.823Z,3.07
2018-07-11T12:05:14.410Z,2.80
2018-07-11T12:07:19.070Z,3.20
2018-07-11T12:09:23.443Z,2.70
2018-07-11T12:11:27.959Z,3.00
2018-07-11T12:13:32.368Z,3.10
2018-07-11T12:15:36.901Z,2.95
2018-07-11T12:17:41.183Z,3.10
2018-07-11T12:19:46.581Z,3.13
2018-07-11T12:21:51.056Z,3.00
2018-07-11T12:23:55.636Z,2.98
2018-07-11T12:26:10.170Z,2.65
2018-07-11T12:28:14.757Z,2.87
2018-07-11T12:30:19.247Z,3.00
2018-07-11T12:32:23.775Z,2.60
2018-07-11T12:34:28.850Z,2.37
2018-07-11T12:36:33.334Z,2.70
2018-07-11T12:38:37.810Z,2.60
2018-07-11T12:40:42.319Z,2.27
2018-07-11T12:42:46.493Z,2.33
2018-07-11T12:44:51.040Z,2.40
2018-07-11T12:46:55.674Z,2.20
2018-07-11T12:49:06.525Z,2.50
2018-07-11T12:51:14.213Z,2.63
2018-07-11T12:53:18.879Z,2.47
2018-07-11T12:55:23.382Z,2.40
2018-07-11T12:57:28.057Z,2.07
2018-07-11T12:59:32.168Z,2.60
2018-07-11T13:01:37.855Z,2.23
2018-07-11T13:03:42.443Z,2.50
2018-07-11T13:05:47.058Z,2.08
2018-07-11T13:07:51.597Z,1.73
2018-07-11T13:09:56.131Z,2.30
2018-07-11T13:12:00.962Z,1.98
2018-07-11T13:14:05.523Z,2.15
2018-07-11T13:16:10.139Z,2.20
2018-07-11T13:18:14.581Z,2.10
2018-07-11T13:20:19.039Z,2.27
2018-07-11T13:22:23.524Z,2.27
2018-07-11T13:24:28.058Z,2.43
2018-07-11T13:26:32.549Z,2.30
2018-07-11T13:28:37.100Z,2.60
2018-07-11T13:30:41.599Z,2.63
2018-07-11T13:32:46.167Z,2.77
2018-07-11T13:34:50.570Z,2.70
2018-07-11T13:36:54.893Z,2.87
2018-07-11T13:38:59.386Z,2.50
2018-07-11T13:41:03.930Z,2.80
2018-07-11T13:43:09.079Z,3.03
2018-07-11T13:45:13.566Z,2.77
2018-07-11T13:47:23.240Z,3.00
2018-07-11T13:49:27.406Z,3.53
2018-07-11T13:51:31.844Z,3.30
2018-07-11T13:53:36.353Z,3.50
2018-07-11T13:55:40.893Z,3.25
2018-07-11T13:57:45.982Z,3.80
2018-07-11T13:59:50.549Z,3.00
2018-07-11T14:01:55.143Z,3.43
2018-07-11T14:03:59.966Z,3.75
2018-07-11T14:06:12.205Z,3.62
2018-07-11T14:08:17.779Z,3.33
2018-07-11T14:10:25.306Z,3.83
2018-07-11T14:12:34.107Z,4.00
2018-07-11T14:14:40.378Z,3.90
2018-07-11T14:16:45.075Z,4.00
2018-07-11T14:18:50.871Z,3.98
2018-07-11T14:20:55.746Z,3.60
2018-07-11T14:23:07.623Z,3.47
2018-07-11T14:25:12.300Z,4.40
2018-07-11T14:27:16.910Z,3.77
2018-07-11T14:29:23.988Z,3.85
2018-07-11T14:31:32.060Z,4.00
2018-07-11T14:33:36.686Z,4.27
2018-07-11T14:35:41.273Z,4.20
2018-07-11T14:37:46.594Z,4.50
2018-07-11T14:39:51.108Z,4.20
2018-07-11T14:41:55.747Z,4.13
2018-07-11T14:44:00.813Z,4.30
2018-07-11T14:46:06.022Z,4.33
2018-07-11T14:48:14.060Z,4.37
2018-07-11T14:50:18.830Z,4.33
2018-07-11T14:52:23.534Z,4.30
2018-07-11T14:54:28.131Z,4.65
2018-07-11T14:56:35.075Z,5.00
2018-07-11T14:58:39.661Z,4.53
2018-07-11T15:00:44.163Z,4.72
2018-07-11T15:02:48.747Z,4.50
2018-07-11T15:04:53.387Z,4.53
2018-07-11T15:06:57.999Z,4.40
2018-07-11T15:09:02.828Z,5.33
2018-07-11T15:11:08.923Z,4.70
2018-07-11T15:13:14.508Z,5.13
2018-07-11T15:15:19.070Z,5.00
2018-07-11T15:17:23.759Z,4.77
2018-07-11T15:19:28.342Z,4.83
2018-07-11T15:21:32.922Z,5.00
2018-07-11T15:23:38.286Z,4.83
2018-07-11T15:25:42.844Z,5.72
2018-07-11T15:27:47.451Z,5.42
2018-07-11T15:29:51.986Z,5.13
2018-07-11T15:31:56.525Z,5.47
2018-07-11T15:34:01.102Z,5.07
2018-07-11T15:36:05.594Z,5.03
2018-07-11T15:38:10.181Z,4.75
2018-07-11T15:40:15.311Z,5.27
2018-07-11T15:42:19.882Z,4.53
2018-07-11T15:44:24.889Z,4.80
2018-07-11T15:46:29.395Z,4.70
2018-07-11T15:48:34.099Z,5.10
2018-07-11T15:50:38.924Z,5.00
2018-07-11T15:52:43.551Z,4.45
2018-07-11T15:54:48.176Z,4.37
2018-07-11T15:56:52.892Z,4.95
2018-07-11T15:59:09.392Z,4.37
2018-07-11T16:01:13.808Z,4.27
2018-07-11T16:03:19.538Z,4.47
2018-07-11T16:05:25.683Z,4.30
2018-07-11T16:07:30.366Z,4.37
2018-07-11T16:09:49.387Z,4.70
2018-07-11T16:11:53.942Z,4.53
2018-07-11T16:13:58.771Z,4.60
2018-07-11T16:16:03.316Z,4.58
2018-07-11T16:18:08.910Z,4.35
2018-07-11T16:20:13.629Z,4.83
2018-07-11T16:22:20.017Z,5.03
2018-07-11T16:24:24.965Z,4.72
2018-07-11T16:26:30.233Z,4.62
2018-07-11T16:28:35.751Z,4.97
2018-07-11T16:30:40.311Z,5.50
2018-07-11T16:32:44.818Z,5.45
2018-07-11T16:34:49.409Z,5.05
2018-07-11T16:36:54.157Z,5.43
2018-07-11T16:38:59.102Z,5.87
2018-07-11T16:41:03.795Z,6.00
2018-07-11T16:43:08.296Z,5.37
2018-07-11T16:45:12.827Z,5.58
2018-07-11T16:47:17.725Z,6.63
2018-07-11T16:49:22.330Z,6.72
2018-07-11T16:51:26.915Z,6.40
2018-07-11T16:53:31.517Z,7.30
2018-07-11T16:55:38.024Z,7.33
2018-07-11T16:57:50.186Z,6.58
2018-07-11T17:00:07.314Z,6.90
2018-07-11T17:02:11.966Z,7.47
2018-07-11T17:04:16.548Z,7.43
2018-07-11T17:06:21.155Z,7.80
2018-07-11T17:08:36.681Z,7.07
2018-07-11T17:10:43.542Z,7.37
2018-07-11T17:12:54.438Z,7.17
2018-07-11T17:15:00.913Z,7.03
2018-07-11T17:17:06.174Z,6.93
2018-07-11T17:19:23.379Z,7.30
2018-07-11T17:21:41.204Z,7.07
2018-07-11T17:23:52.284Z,6.90
2018-07-11T17:25:56.895Z,7.03
2018-07-11T17:28:03.514Z,7.45
2018-07-11T17:30:07.973Z,7.00
2018-07-11T17:32:13.345Z,6.40
2018-07-11T17:34:18.178Z,6.67
2018-07-11T17:36:22.705Z,6.30
2018-07-11T17:38:31.252Z,7.50
2018-07-11T17:40:40.207Z,7.22
2018-07-11T17:42:45.831Z,7.15
2018-07-11T17:45:23.033Z,7.75
2018-07-11T17:47:27.565Z,6.70
2018-07-11T17:49:35.237Z,7.03
2018-07-11T17:52:04.082Z,6.73
2018-07-11T17:54:08.697Z,7.87
2018-07-11T17:56:14.597Z,6.85
2018-07-11T17:58:20.922Z,6.90
2018-07-11T18:00:49.734Z,6.55
2018-07-11T18:03:05.967Z,5.97
2018-07-11T18:05:25.841Z,6.30
2018-07-11T18:07:45.270Z,6.13
2018-07-11T18:10:00.161Z,6.60
2018-07-11T18:12:22.216Z,6.50
2018-07-11T18:14:44.039Z,6.60
2018-07-11T18:17:04.336Z,6.03
2018-07-11T18:20:25.883Z,6.60
2018-07-11T18:22:57.665Z,6.75
2018-07-11T18:25:26.998Z,6.23
2018-07-11T18:31:02.937Z,7.17
2018-07-11T18:33:39.167Z,6.53
2018-07-11T18:36:10.674Z,7.30
2018-07-11T18:38:24.477Z,7.37
2018-07-11T18:40:38.380Z,7.23
2018-07-11T18:42:59.568Z,7.70
2018-07-11T18:45:17.564Z,7.70
2018-07-11T18:47:39.452Z,7.23
2018-07-11T18:52:33.290Z,6.70
2018-07-11T18:54:57.225Z,7.05
2018-07-11T18:57:09.792Z,7.43
2018-07-11T18:59:30.009Z,6.85
2018-07-11T19:01:49.118Z,7.37
2018-07-11T19:05:09.547Z,7.57
2018-07-11T19:07:34.304Z,7.33
2018-07-11T19:09:53.728Z,6.75
2018-07-11T19:13:04.618Z,6.78
2018-07-11T19:15:13.902Z,8.43
2018-07-11T19:17:28.536Z,6.83
2018-07-11T19:19:43.709Z,7.15
2018-07-11T19:21:58.619Z,7.90
2018-07-11T19:24:09.040Z,7.47
2018-07-11T19:26:28.501Z,7.67
2018-07-11T19:29:52.863Z,7.00
2018-07-11T19:32:10.271Z,5.15
2018-07-11T19:36:42.782Z,5.37
2018-07-11T19:39:12.266Z,5.50
2018-07-11T19:41:25.630Z,4.85
2018-07-11T19:47:04.432Z,5.00
2018-07-11T19:49:37.553Z,7.50
2018-07-11T19:54:00.542Z,7.07
2018-07-11T19:57:11.535Z,6.30
2018-07-11T19:59:16.266Z,5.95
2018-07-11T20:01:20.827Z,8.00
2018-07-11T20:03:25.544Z,8.47
2018-07-11T20:07:39.452Z,8.83
2018-07-11T20:09:44.906Z,8.60
2018-07-11T20:11:50.531Z,9.08
2018-07-11T20:13:55.482Z,9.60
2018-07-11T20:16:00.035Z,10.25
2018-07-11T20:18:05.282Z,9.73
2018-07-11T20:20:09.749Z,9.63
2018-07-11T20:22:15.089Z,9.90
2018-07-11T20:24:19.784Z,9.60
2018-07-11T20:26:24.507Z,11.08
2018-07-11T20:28:29.062Z,9.70
2018-07-11T20:30:33.702Z,9.45
2018-07-11T20:32:38.533Z,10.43
2018-07-11T20:34:43.687Z,9.47
2018-07-11T20:36:48.762Z,10.03
2018-07-11T20:38:53.333Z,9.45
2018-07-11T20:40:57.829Z,9.93
2018-07-11T20:43:02.599Z,12.20
2018-07-11T20:45:07.255Z,12.70
2018-07-11T20:47:11.751Z,13.03
2018-07-11T20:49:21.804Z,10.32
2018-07-11T20:51:26.269Z,13.37
2018-07-11T20:53:30.737Z,12.60
2018-07-11T20:55:36.278Z,12.80
2018-07-11T20:57:40.938Z,12.40
2018-07-11T21:00:02.505Z,14.73
2018-07-11T21:02:24.163Z,14.00
2018-07-11T21:06:47.795Z,13.98
2018-07-11T21:11:13.920Z,14.90
2018-07-11T21:13:38.131Z,16.73
2018-07-11T21:16:58.320Z,16.33
2018-07-11T21:19:09.459Z,15.88
2018-07-11T21:21:14.002Z,19.33
2018-07-11T21:23:18.545Z,19.17
2018-07-11T21:25:23.483Z,19.60
2018-07-11T21:27:27.970Z,20.73
2018-07-11T21:29:32.486Z,19.47
2018-07-11T21:31:37.026Z,20.12
2018-07-11T21:33:41.502Z,20.83
2018-07-11T21:35:46.386Z,21.90
2018-07-11T21:37:51.114Z,20.68
2018-07-11T21:39:55.651Z,20.23
2018-07-11T21:42:00.599Z,20.50
2018-07-11T21:44:05.160Z,21.17
2018-07-11T21:46:09.626Z,21.73
2018-07-11T21:48:14.101Z,22.23
2018-07-11T21:50:18.638Z,21.87
2018-07-11T21:52:23.990Z,20.87
2018-07-11T21:54:28.438Z,22.30
2018-07-11T21:56:32.893Z,21.63
2018-07-11T21:58:37.470Z,21.80
2018-07-11T22:00:42.230Z,21.82
2018-07-11T22:02:46.621Z,21.73
2018-07-11T22:04:50.870Z,21.27
2018-07-11T22:06:55.386Z,21.77
2018-07-11T22:08:59.849Z,20.90
2018-07-11T22:11:04.314Z,21.60
2018-07-11T22:13:09.466Z,21.85
2018-07-11T22:15:13.914Z,22.60
2018-07-11T22:17:31.490Z,21.10
2018-07-11T22:19:35.402Z,20.85
2018-07-11T22:21:38.131Z,21.77
2018-07-11T22:23:42.258Z,20.83
2018-07-11T22:25:44.983Z,21.00
2018-07-11T22:27:48.186Z,20.67
2018-07-11T22:29:50.898Z,20.57
2018-07-11T22:31:53.626Z,21.60
2018-07-11T22:33:56.432Z,20.43
2018-07-11T22:35:59.206Z,20.15
2018-07-11T22:38:03.445Z,19.97
2018-07-11T22:40:06.153Z,20.50
2018-07-11T22:42:08.859Z,19.13
2018-07-11T22:44:11.610Z,19.27
2018-07-11T22:46:14.314Z,17.00
2018-07-11T22:48:17.090Z,17.98
2018-07-11T22:50:19.790Z,18.83
2018-07-11T22:52:22.815Z,18.17
2018-07-11T22:54:25.583Z,16.30
2018-07-11T22:56:28.306Z,16.70
2018-07-11T22:58:31.066Z,16.47
2018-07-11T23:00:33.790Z,15.95
2018-07-11T23:02:36.521Z,16.10
2018-07-11T23:04:39.318Z,16.27
2018-07-11T23:06:42.969Z,15.98
2018-07-11T23:08:45.710Z,16.53
2018-07-11T23:10:48.441Z,16.83
2018-07-11T23:12:51.170Z,16.30
2018-07-11T23:14:53.954Z,15.70
2018-07-11T23:16:57.662Z,15.97
2018-07-11T23:19:00.407Z,16.37
2018-07-11T23:21:03.130Z,16.73
2018-07-11T23:23:05.843Z,16.77
2018-07-11T23:25:08.590Z,17.05
2018-07-11T23:27:11.656Z,16.27
2018-07-11T23:29:14.427Z,17.30
2018-07-11T23:31:17.138Z,16.87
2018-07-11T23:33:19.866Z,17.23
2018-07-11T23:35:23.253Z,16.57
2018-07-11T23:37:25.997Z,16.77
2018-07-11T23:39:28.747Z,16.03
2018-07-11T23:41:31.472Z,15.98
2018-07-11T23:43:34.196Z,16.75
2018-07-11T23:45:36.938Z,16.12
2018-07-11T23:47:39.662Z,16.02
2018-07-11T23:49:43.365Z,16.65
2018-07-11T23:51:46.104Z,16.23
2018-07-11T23:53:49.226Z,15.73
2018-07-11T23:55:53.762Z,14.65
2018-07-11T23:57:56.483Z,16.37
2018-07-11T23:59:59.227Z,16.07
